createdAt,value
2019-03-26T00:00:43.792Z,0.70
2019-03-26T00:03:10.898Z,0.83
2019-03-26T00:05:37.999Z,0.80
2019-03-26T00:08:05.997Z,0.80
2019-03-26T00:10:33.827Z,0.80
2019-03-26T00:13:01.169Z,0.80
2019-03-26T00:15:28.153Z,0.60
2019-03-26T00:17:56.608Z,0.63
2019-03-26T00:20:25.013Z,0.90
2019-03-26T00:22:52.857Z,0.50
2019-03-26T00:25:20.621Z,0.60
2019-03-26T00:27:49.099Z,0.60
2019-03-26T00:30:16.557Z,0.80
2019-03-26T00:32:45.243Z,0.80
2019-03-26T00:35:12.395Z,0.50
2019-03-26T00:37:39.168Z,0.80
2019-03-26T00:40:08.232Z,0.80
2019-03-26T00:42:35.483Z,0.70
2019-03-26T00:45:02.632Z,0.50
2019-03-26T00:47:30.091Z,0.50
2019-03-26T00:49:59.082Z,0.60
2019-03-26T00:52:26.750Z,0.60
2019-03-26T00:54:55.435Z,0.60
2019-03-26T00:57:23.197Z,0.73
2019-03-26T00:59:51.373Z,0.73
2019-03-26T01:02:19.954Z,0.50
2019-03-26T01:04:48.598Z,0.53
2019-03-26T01:07:15.795Z,0.60
2019-03-26T01:09:43.860Z,0.50
2019-03-26T01:12:10.728Z,0.43
2019-03-26T01:14:37.630Z,0.40
2019-03-26T01:17:05.660Z,0.67
2019-03-26T01:19:32.975Z,0.50
2019-03-26T01:22:00.847Z,0.50
2019-03-26T01:24:28.299Z,0.60
2019-03-26T01:26:55.556Z,0.60
2019-03-26T01:29:22.986Z,0.70
2019-03-26T01:31:50.274Z,0.50
2019-03-26T01:34:18.025Z,0.60
2019-03-26T01:36:45.997Z,0.40
2019-03-26T01:39:13.350Z,0.50
2019-03-26T01:41:40.606Z,0.50
2019-03-26T01:44:08.370Z,0.30
2019-03-26T01:46:36.339Z,0.60
2019-03-26T01:49:04.510Z,0.40
2019-03-26T01:51:31.973Z,0.40
2019-03-26T01:53:59.943Z,0.60
2019-03-26T01:56:28.625Z,0.47
2019-03-26T01:58:56.386Z,0.43
2019-03-26T02:01:24.257Z,0.40
2019-03-26T02:03:51.712Z,0.77
2019-03-26T02:06:19.069Z,0.63
2019-03-26T02:08:46.425Z,0.63
2019-03-26T02:11:14.397Z,0.60
2019-03-26T02:13:42.976Z,0.50
2019-03-26T02:16:09.977Z,0.60
2019-03-26T02:18:38.274Z,0.50
2019-03-26T02:21:05.883Z,0.60
2019-03-26T02:23:33.933Z,0.50
2019-03-26T02:26:02.519Z,0.60
2019-03-26T02:28:30.895Z,0.63
2019-03-26T02:30:59.171Z,0.60
2019-03-26T02:33:27.095Z,0.70
2019-03-26T02:35:54.905Z,0.67
2019-03-26T02:38:22.568Z,0.90
2019-03-26T02:40:50.638Z,0.60
2019-03-26T02:43:17.696Z,0.60
2019-03-26T02:45:45.451Z,0.60
2019-03-26T02:48:12.549Z,0.60
2019-03-26T02:50:40.773Z,0.50
2019-03-26T02:53:09.128Z,0.73
2019-03-26T02:55:36.037Z,0.60
2019-03-26T02:58:03.300Z,0.70
2019-03-26T03:00:30.814Z,0.57
2019-03-26T03:02:58.679Z,0.60
2019-03-26T03:05:35.009Z,0.40
2019-03-26T03:07:52.930Z,0.50
2019-03-26T03:10:20.846Z,0.53
2019-03-26T03:12:49.331Z,0.60
2019-03-26T03:15:16.783Z,0.70
2019-03-26T03:17:44.430Z,0.77
2019-03-26T03:20:11.699Z,0.60
2019-03-26T03:22:38.548Z,0.67
2019-03-26T03:25:05.792Z,0.43
2019-03-26T03:27:33.059Z,0.50
2019-03-26T03:30:00.184Z,0.50
2019-03-26T03:32:28.111Z,0.40
2019-03-26T03:34:55.737Z,0.43
2019-03-26T03:37:24.182Z,0.60
2019-03-26T03:39:52.175Z,0.50
2019-03-26T03:42:19.221Z,0.67
2019-03-26T03:44:47.601Z,0.63
2019-03-26T03:47:16.195Z,0.40
2019-03-26T03:49:43.542Z,0.33
2019-03-26T03:52:10.367Z,0.60
2019-03-26T03:54:38.658Z,0.40
2019-03-26T03:57:06.528Z,0.60
2019-03-26T03:59:33.678Z,0.50
2019-03-26T04:02:00.827Z,0.43
2019-03-26T04:04:28.899Z,0.40
2019-03-26T04:06:56.869Z,0.30
2019-03-26T04:09:24.943Z,0.40
2019-03-26T04:11:52.197Z,0.80
2019-03-26T04:14:19.545Z,0.50
2019-03-26T04:16:46.901Z,0.80
2019-03-26T04:19:14.458Z,0.63
2019-03-26T04:21:41.413Z,0.43
2019-03-26T04:24:08.865Z,0.67
2019-03-26T04:26:36.322Z,0.50
2019-03-26T04:29:03.472Z,0.50
2019-03-26T04:31:30.623Z,0.80
2019-03-26T04:33:57.567Z,0.50
2019-03-26T04:36:26.500Z,0.53
2019-03-26T04:38:52.071Z,0.40
2019-03-26T04:41:18.964Z,0.50
2019-03-26T04:43:46.782Z,0.60
2019-03-26T04:46:14.648Z,0.40
2019-03-26T04:48:43.131Z,0.50
2019-03-26T04:51:11.409Z,0.70
2019-03-26T04:53:39.276Z,0.47
2019-03-26T04:56:06.739Z,0.60
2019-03-26T04:58:35.212Z,0.43
2019-03-26T05:01:02.261Z,0.50
2019-03-26T05:03:29.307Z,0.73
2019-03-26T05:05:57.685Z,0.60
2019-03-26T05:08:24.540Z,0.83
2019-03-26T05:10:52.499Z,0.70
2019-03-26T05:13:19.852Z,0.50
2019-03-26T05:15:48.130Z,0.50
2019-03-26T05:18:16.506Z,0.70
2019-03-26T05:20:44.286Z,0.73
2019-03-26T05:23:11.627Z,0.60
2019-03-26T05:25:38.984Z,0.80
2019-03-26T05:28:06.034Z,1.00
2019-03-26T05:30:33.353Z,0.73
2019-03-26T05:33:01.343Z,0.87
2019-03-26T05:35:29.062Z,1.23
2019-03-26T05:37:56.373Z,0.80
2019-03-26T05:40:24.646Z,0.97
2019-03-26T05:42:52.254Z,0.50
2019-03-26T05:45:19.321Z,1.37
2019-03-26T05:47:46.304Z,0.83
2019-03-26T05:50:14.715Z,0.90
2019-03-26T05:52:42.138Z,0.80
2019-03-26T05:55:09.600Z,1.10
2019-03-26T05:57:36.655Z,0.83
2019-03-26T06:00:06.548Z,0.80
2019-03-26T06:02:33.309Z,0.77
2019-03-26T06:05:00.364Z,1.00
2019-03-26T06:07:27.188Z,0.80
2019-03-26T06:09:53.979Z,0.60
2019-03-26T06:12:21.595Z,0.60
2019-03-26T06:14:48.768Z,0.80
2019-03-26T06:17:15.607Z,0.50
2019-03-26T06:19:42.306Z,0.63
2019-03-26T06:22:09.070Z,0.70
2019-03-26T06:24:39.414Z,0.60
2019-03-26T06:27:06.937Z,0.50
2019-03-26T06:29:33.908Z,0.57
2019-03-26T06:32:01.509Z,0.60
2019-03-26T06:34:28.310Z,0.60
2019-03-26T06:36:55.885Z,0.70
2019-03-26T06:39:25.628Z,0.63
2019-03-26T06:41:53.437Z,0.50
2019-03-26T06:44:20.278Z,0.50
2019-03-26T06:46:47.244Z,0.70
2019-03-26T06:49:14.033Z,0.83
2019-03-26T06:51:41.122Z,0.60
2019-03-26T06:54:08.253Z,0.50
2019-03-26T06:56:36.276Z,0.77
2019-03-26T06:59:05.216Z,0.50
2019-03-26T07:01:32.544Z,0.60
2019-03-26T07:03:59.362Z,0.77
2019-03-26T07:06:27.391Z,0.60
2019-03-26T07:08:54.742Z,0.67
2019-03-26T07:11:22.013Z,0.93
2019-03-26T07:13:49.765Z,1.07
2019-03-26T07:16:17.712Z,0.70
2019-03-26T07:18:45.945Z,1.10
2019-03-26T07:21:13.405Z,1.00
2019-03-26T07:23:42.593Z,0.70
2019-03-26T07:26:12.033Z,0.60
2019-03-26T07:28:41.125Z,0.80
2019-03-26T07:31:09.723Z,0.97
2019-03-26T07:33:38.104Z,0.80
2019-03-26T07:36:05.315Z,0.90
2019-03-26T07:38:32.818Z,0.93
2019-03-26T07:41:01.568Z,1.37
2019-03-26T07:43:28.551Z,0.93
2019-03-26T07:45:55.994Z,0.90
2019-03-26T07:48:22.915Z,1.00
2019-03-26T07:50:51.047Z,1.27
2019-03-26T07:53:18.322Z,1.07
2019-03-26T07:55:55.729Z,0.83
2019-03-26T07:58:23.769Z,1.10
2019-03-26T08:00:50.862Z,1.37
2019-03-26T08:03:21.099Z,1.33
2019-03-26T08:05:47.418Z,1.00
2019-03-26T08:08:14.636Z,1.00
2019-03-26T08:10:42.402Z,1.00
2019-03-26T08:13:09.547Z,1.30
2019-03-26T08:15:37.118Z,1.40
2019-03-26T08:18:04.575Z,1.17
2019-03-26T08:20:34.554Z,1.43
2019-03-26T08:23:01.722Z,1.03
2019-03-26T08:25:28.508Z,1.20
2019-03-26T08:27:55.407Z,1.07
2019-03-26T08:30:22.185Z,1.10
2019-03-26T08:32:49.749Z,1.00
2019-03-26T08:35:16.606Z,1.03
2019-03-26T08:37:43.672Z,1.00
2019-03-26T08:40:10.775Z,1.27
2019-03-26T08:42:40.597Z,1.20
2019-03-26T08:45:08.692Z,1.00
2019-03-26T08:47:35.462Z,1.40
2019-03-26T08:50:02.254Z,0.70
2019-03-26T08:52:29.049Z,1.30
2019-03-26T08:54:56.222Z,1.10
2019-03-26T08:57:26.200Z,1.20
2019-03-26T08:59:53.507Z,1.23
2019-03-26T09:02:20.756Z,0.93
2019-03-26T09:04:48.764Z,1.33
2019-03-26T09:07:15.566Z,1.10
2019-03-26T09:09:42.288Z,1.03
2019-03-26T09:12:09.056Z,1.07
2019-03-26T09:14:36.570Z,0.73
2019-03-26T09:17:03.259Z,0.70
2019-03-26T09:19:30.734Z,0.93
2019-03-26T09:21:58.187Z,0.87
2019-03-26T09:24:25.605Z,0.83
2019-03-26T09:26:52.431Z,0.83
2019-03-26T09:29:19.147Z,0.90
2019-03-26T09:31:45.865Z,0.90
2019-03-26T09:34:12.702Z,0.83
2019-03-26T09:36:40.210Z,0.73
2019-03-26T09:39:07.034Z,1.00
2019-03-26T09:41:33.804Z,0.90
2019-03-26T09:44:00.543Z,1.10
2019-03-26T09:46:27.377Z,0.97
2019-03-26T09:48:54.199Z,0.67
2019-03-26T09:51:20.965Z,0.83
2019-03-26T09:53:47.909Z,0.97
2019-03-26T09:56:27.736Z,0.80
2019-03-26T09:58:41.902Z,1.10
2019-03-26T10:01:08.744Z,1.00
2019-03-26T10:03:35.587Z,0.90
2019-03-26T10:06:02.532Z,1.00
2019-03-26T10:08:29.236Z,0.87
2019-03-26T10:10:56.006Z,0.70
2019-03-26T10:13:23.573Z,1.10
2019-03-26T10:15:50.415Z,1.00
2019-03-26T10:18:17.256Z,0.70
2019-03-26T10:20:44.209Z,0.80
2019-03-26T10:23:10.942Z,0.83
2019-03-26T10:25:37.686Z,1.00
2019-03-26T10:28:05.151Z,1.07
2019-03-26T10:30:32.918Z,0.77
2019-03-26T10:32:59.708Z,0.90
2019-03-26T10:35:27.169Z,0.77
2019-03-26T10:37:53.934Z,1.13
2019-03-26T10:40:29.493Z,0.80
2019-03-26T10:42:56.279Z,0.57
2019-03-26T10:45:23.746Z,0.60
2019-03-26T10:47:50.482Z,0.50
2019-03-26T10:50:17.991Z,0.50
2019-03-26T10:52:44.859Z,0.63
2019-03-26T10:55:12.501Z,0.70
2019-03-26T10:57:39.440Z,0.80
2019-03-26T11:00:06.285Z,0.80
2019-03-26T11:02:33.024Z,0.50
2019-03-26T11:04:59.761Z,0.70
2019-03-26T11:07:26.511Z,0.50
2019-03-26T11:09:53.275Z,0.50
2019-03-26T11:12:19.988Z,0.50
2019-03-26T11:14:46.935Z,0.60
2019-03-26T11:17:13.717Z,0.50
2019-03-26T11:19:40.453Z,0.60
2019-03-26T11:22:07.295Z,0.73
2019-03-26T11:24:34.105Z,0.60
2019-03-26T11:27:00.849Z,0.80
2019-03-26T11:29:27.684Z,0.70
2019-03-26T11:31:54.847Z,0.77
2019-03-26T11:34:21.655Z,0.80
2019-03-26T11:36:48.727Z,0.70
2019-03-26T11:39:15.542Z,0.70
2019-03-26T11:41:42.855Z,0.60
2019-03-26T11:44:09.683Z,0.60
2019-03-26T11:46:38.600Z,0.80
2019-03-26T11:49:06.155Z,0.90
2019-03-26T11:51:33.636Z,0.90
2019-03-26T11:54:00.476Z,0.80
2019-03-26T11:56:27.146Z,0.83
2019-03-26T11:58:53.820Z,0.93
2019-03-26T12:01:23.081Z,0.80
2019-03-26T12:03:53.812Z,0.60
2019-03-26T12:06:20.631Z,0.70
2019-03-26T12:08:47.704Z,0.70
2019-03-26T12:11:14.484Z,1.00
2019-03-26T12:13:42.185Z,0.77
2019-03-26T12:16:09.101Z,0.73
2019-03-26T12:18:36.611Z,0.70
2019-03-26T12:21:03.567Z,0.80
2019-03-26T12:23:30.433Z,0.70
2019-03-26T12:25:57.145Z,0.90
2019-03-26T12:28:23.915Z,0.67
2019-03-26T12:30:50.598Z,0.63
2019-03-26T12:33:17.310Z,0.80
2019-03-26T12:35:44.655Z,0.83
2019-03-26T12:38:15.657Z,0.60
2019-03-26T12:40:43.408Z,0.60
2019-03-26T12:43:10.181Z,0.67
2019-03-26T12:45:36.973Z,0.53
2019-03-26T12:48:04.578Z,0.63
2019-03-26T12:50:32.288Z,0.77
2019-03-26T12:52:58.312Z,0.63
2019-03-26T12:55:25.994Z,0.70
2019-03-26T12:57:53.039Z,0.47
2019-03-26T13:00:20.234Z,0.70
2019-03-26T13:02:47.011Z,0.90
2019-03-26T13:05:14.451Z,0.90
2019-03-26T13:07:41.174Z,1.20
2019-03-26T13:10:13.452Z,1.00
2019-03-26T13:12:34.930Z,0.60
2019-03-26T13:15:01.706Z,1.17
2019-03-26T13:17:28.620Z,0.83
2019-03-26T13:19:55.431Z,0.77
2019-03-26T13:22:23.025Z,1.07
2019-03-26T13:24:49.778Z,0.83
2019-03-26T13:27:16.546Z,0.80
2019-03-26T13:29:43.378Z,0.60
2019-03-26T13:32:12.892Z,0.90
2019-03-26T13:34:37.804Z,0.87
2019-03-26T13:37:04.790Z,0.90
2019-03-26T13:39:31.662Z,0.90
2019-03-26T13:41:58.367Z,0.80
2019-03-26T13:44:25.381Z,0.80
2019-03-26T13:46:52.819Z,1.03
2019-03-26T13:49:19.528Z,0.93
2019-03-26T13:51:46.385Z,1.03
2019-03-26T13:54:13.232Z,0.90
2019-03-26T13:56:40.173Z,0.73
2019-03-26T13:59:06.992Z,0.90
2019-03-26T14:01:33.710Z,1.27
2019-03-26T14:04:01.184Z,1.10
2019-03-26T14:06:27.971Z,0.93
2019-03-26T14:08:54.669Z,1.03
2019-03-26T14:11:21.358Z,1.03
2019-03-26T14:13:48.198Z,0.83
2019-03-26T14:16:15.677Z,0.70
2019-03-26T14:18:42.472Z,0.97
2019-03-26T14:21:09.422Z,0.97
2019-03-26T14:23:36.189Z,0.97
2019-03-26T14:26:03.310Z,1.10
2019-03-26T14:28:29.995Z,1.20
2019-03-26T14:30:57.434Z,0.93
2019-03-26T14:33:24.252Z,1.03
2019-03-26T14:35:51.084Z,1.27
2019-03-26T14:38:17.786Z,1.13
2019-03-26T14:40:54.559Z,1.03
2019-03-26T14:43:11.623Z,0.90
2019-03-26T14:45:38.381Z,0.90
2019-03-26T14:48:05.204Z,0.80
2019-03-26T14:50:32.151Z,0.87
2019-03-26T14:52:59.302Z,0.93
2019-03-26T14:55:27.063Z,0.70
2019-03-26T14:57:53.783Z,1.00
2019-03-26T15:00:20.565Z,0.90
2019-03-26T15:02:47.544Z,0.60
2019-03-26T15:05:14.292Z,0.87
2019-03-26T15:07:41.020Z,0.60
2019-03-26T15:10:08.634Z,0.80
2019-03-26T15:12:35.369Z,0.57
2019-03-26T15:15:02.141Z,0.80
2019-03-26T15:17:28.846Z,0.80
2019-03-26T15:19:56.493Z,0.70
2019-03-26T15:22:23.223Z,0.63
2019-03-26T15:24:49.927Z,0.60
2019-03-26T15:27:16.694Z,0.70
2019-03-26T15:29:43.584Z,0.60
2019-03-26T15:32:11.044Z,1.00
2019-03-26T15:34:37.832Z,0.57
2019-03-26T15:37:05.256Z,0.60
2019-03-26T15:39:32.081Z,0.80
2019-03-26T15:41:58.832Z,0.77
2019-03-26T15:44:25.558Z,0.70
2019-03-26T15:46:52.262Z,0.90
2019-03-26T15:49:19.076Z,0.83
2019-03-26T15:51:46.543Z,1.00
2019-03-26T15:54:14.015Z,0.90
2019-03-26T15:56:41.620Z,0.70
2019-03-26T15:59:08.357Z,0.80
2019-03-26T16:01:35.103Z,0.80
2019-03-26T16:04:01.826Z,0.73
2019-03-26T16:06:28.576Z,1.00
2019-03-26T16:08:55.361Z,0.80
2019-03-26T16:11:35.002Z,0.83
2019-03-26T16:13:49.929Z,0.97
2019-03-26T16:16:16.771Z,0.87
2019-03-26T16:18:44.028Z,0.70
2019-03-26T16:21:10.784Z,0.70
2019-03-26T16:23:39.039Z,1.00
2019-03-26T16:26:05.884Z,0.83
2019-03-26T16:28:32.562Z,1.03
2019-03-26T16:31:00.292Z,0.90
2019-03-26T16:33:27.046Z,1.10
2019-03-26T16:35:53.795Z,0.87
2019-03-26T16:38:22.041Z,1.10
2019-03-26T16:40:49.602Z,0.70
2019-03-26T16:43:16.553Z,0.70
2019-03-26T16:45:44.066Z,0.87
2019-03-26T16:48:10.991Z,1.00
2019-03-26T16:50:38.489Z,0.80
2019-03-26T16:53:05.222Z,0.73
2019-03-26T16:55:31.945Z,0.70
2019-03-26T16:57:59.550Z,0.80
2019-03-26T17:00:28.234Z,0.67
2019-03-26T17:02:55.086Z,0.83
2019-03-26T17:05:21.904Z,1.20
2019-03-26T17:07:48.618Z,0.90
2019-03-26T17:10:16.226Z,1.10
2019-03-26T17:12:42.970Z,1.03
2019-03-26T17:15:09.829Z,1.00
2019-03-26T17:17:36.604Z,0.63
2019-03-26T17:20:04.107Z,1.20
2019-03-26T17:22:31.874Z,0.80
2019-03-26T17:24:58.807Z,0.90
2019-03-26T17:27:28.977Z,0.80
2019-03-26T17:29:53.424Z,0.83
2019-03-26T17:32:20.163Z,0.80
2019-03-26T17:34:47.007Z,1.07
2019-03-26T17:37:13.850Z,0.83
2019-03-26T17:39:40.693Z,1.00
2019-03-26T17:42:17.150Z,1.20
2019-03-26T17:44:35.380Z,0.87
2019-03-26T17:47:02.457Z,1.27
2019-03-26T17:49:29.397Z,1.17
2019-03-26T17:51:56.343Z,0.77
2019-03-26T17:54:23.845Z,1.00
2019-03-26T17:56:50.743Z,1.07
2019-03-26T17:59:17.612Z,0.93
2019-03-26T18:01:44.821Z,1.10
2019-03-26T18:04:11.759Z,0.83
2019-03-26T18:06:40.719Z,0.97
2019-03-26T18:09:09.440Z,0.90
2019-03-26T18:11:37.317Z,0.80
2019-03-26T18:14:05.316Z,0.80
2019-03-26T18:16:32.245Z,0.97
2019-03-26T18:18:59.190Z,0.83
2019-03-26T18:21:26.348Z,0.60
2019-03-26T18:23:53.392Z,0.90
2019-03-26T18:26:20.254Z,0.63
2019-03-26T18:28:47.068Z,0.90
2019-03-26T18:31:14.214Z,0.97
2019-03-26T18:33:41.386Z,1.03
2019-03-26T18:36:08.785Z,1.03
2019-03-26T18:38:36.476Z,1.20
2019-03-26T18:41:03.339Z,0.70
2019-03-26T18:43:30.189Z,0.80
2019-03-26T18:45:57.259Z,1.07
2019-03-26T18:48:24.977Z,0.70
2019-03-26T18:50:52.717Z,0.97
2019-03-26T18:53:19.909Z,1.10
2019-03-26T18:55:47.674Z,1.87
2019-03-26T18:58:16.977Z,1.50
2019-03-26T19:00:44.785Z,1.07
2019-03-26T19:03:11.790Z,1.30
2019-03-26T19:05:38.733Z,1.17
2019-03-26T19:08:05.782Z,1.57
2019-03-26T19:10:32.724Z,1.13
2019-03-26T19:12:59.713Z,1.00
2019-03-26T19:15:26.722Z,1.10
2019-03-26T19:17:54.178Z,1.50
2019-03-26T19:20:21.902Z,1.43
2019-03-26T19:22:49.003Z,1.37
2019-03-26T19:25:16.035Z,1.50
2019-03-26T19:27:42.980Z,1.50
2019-03-26T19:30:10.134Z,1.73
2019-03-26T19:32:36.942Z,1.50
2019-03-26T19:35:03.863Z,1.43
2019-03-26T19:37:30.868Z,1.73
2019-03-26T19:39:57.608Z,1.47
2019-03-26T19:42:25.162Z,1.70
2019-03-26T19:44:52.910Z,1.20
2019-03-26T19:47:20.490Z,1.20
2019-03-26T19:49:47.845Z,1.03
2019-03-26T19:52:14.992Z,1.50
2019-03-26T19:54:52.767Z,1.20
2019-03-26T19:57:19.741Z,1.33
2019-03-26T19:59:46.688Z,1.30
2019-03-26T20:02:13.831Z,1.67
2019-03-26T20:04:40.880Z,1.20
2019-03-26T20:07:08.133Z,1.40
2019-03-26T20:09:35.240Z,1.30
2019-03-26T20:12:02.512Z,1.30
2019-03-26T20:14:29.413Z,1.47
2019-03-26T20:16:57.150Z,1.33
2019-03-26T20:19:24.528Z,1.50
2019-03-26T20:21:52.096Z,1.07
2019-03-26T20:24:20.404Z,1.33
2019-03-26T20:26:48.451Z,1.53
2019-03-26T20:29:15.481Z,1.37
2019-03-26T20:31:42.953Z,1.30
2019-03-26T20:34:10.608Z,1.37
2019-03-26T20:36:38.063Z,1.43
2019-03-26T20:39:05.730Z,1.30
2019-03-26T20:41:32.493Z,1.27
2019-03-26T20:43:59.983Z,1.60
2019-03-26T20:46:26.883Z,1.60
2019-03-26T20:48:54.383Z,1.50
2019-03-26T20:51:21.136Z,1.30
2019-03-26T20:53:48.826Z,1.23
2019-03-26T20:56:15.560Z,1.40
2019-03-26T20:58:43.221Z,1.67
2019-03-26T21:01:10.101Z,1.47
2019-03-26T21:03:36.880Z,1.43
2019-03-26T21:06:03.722Z,1.30
2019-03-26T21:08:30.571Z,1.40
2019-03-26T21:10:57.365Z,1.20
2019-03-26T21:13:24.912Z,1.10
2019-03-26T21:15:57.022Z,1.30
2019-03-26T21:18:19.409Z,1.80
2019-03-26T21:20:46.922Z,1.10
2019-03-26T21:23:13.704Z,1.40
2019-03-26T21:25:41.191Z,1.20
2019-03-26T21:28:08.034Z,1.30
2019-03-26T21:30:34.873Z,1.37
2019-03-26T21:33:01.653Z,1.37
2019-03-26T21:35:29.020Z,1.20
2019-03-26T21:37:55.306Z,1.20
2019-03-26T21:40:22.081Z,1.60
2019-03-26T21:42:48.886Z,1.20
2019-03-26T21:45:16.616Z,1.10
2019-03-26T21:47:43.440Z,1.40
2019-03-26T21:50:10.280Z,1.10
2019-03-26T21:52:37.431Z,1.50
2019-03-26T21:55:04.999Z,1.30
2019-03-26T21:57:31.839Z,1.40
2019-03-26T21:59:58.885Z,1.30
2019-03-26T22:02:25.631Z,1.47
2019-03-26T22:04:52.586Z,1.53
2019-03-26T22:07:19.616Z,1.50
2019-03-26T22:09:46.458Z,1.67
2019-03-26T22:12:14.007Z,2.00
2019-03-26T22:14:40.735Z,2.00
2019-03-26T22:17:07.601Z,1.53
2019-03-26T22:19:34.367Z,1.43
2019-03-26T22:22:01.148Z,1.20
2019-03-26T22:24:27.878Z,1.40
2019-03-26T22:26:54.737Z,1.53
2019-03-26T22:29:22.315Z,1.30
2019-03-26T22:31:49.240Z,1.17
2019-03-26T22:34:16.113Z,1.10
2019-03-26T22:36:42.865Z,1.30
2019-03-26T22:39:09.600Z,1.40
2019-03-26T22:41:36.426Z,1.43
2019-03-26T22:44:03.170Z,1.50
2019-03-26T22:46:30.129Z,1.80
2019-03-26T22:48:57.073Z,1.50
2019-03-26T22:51:24.017Z,1.20
2019-03-26T22:53:50.974Z,1.43
2019-03-26T22:56:17.820Z,1.27
2019-03-26T22:58:44.798Z,1.57
2019-03-26T23:01:11.664Z,1.60
2019-03-26T23:03:38.542Z,1.30
2019-03-26T23:06:05.378Z,1.20
2019-03-26T23:08:33.032Z,1.37
2019-03-26T23:10:59.901Z,1.07
2019-03-26T23:13:26.631Z,1.40
2019-03-26T23:21:47.882Z,1.37
2019-03-26T23:24:14.928Z,1.20
2019-03-26T23:26:41.886Z,1.20
2019-03-26T23:29:10.321Z,1.30
2019-03-26T23:31:37.420Z,0.97
2019-03-26T23:34:05.906Z,1.57
2019-03-26T23:36:33.033Z,1.40
2019-03-26T23:38:59.879Z,1.10
2019-03-26T23:41:27.030Z,1.60
2019-03-26T23:43:54.592Z,1.20
2019-03-26T23:46:21.767Z,1.43
2019-03-26T23:48:49.398Z,1.30
2019-03-26T23:51:16.550Z,1.10
2019-03-26T23:53:43.699Z,1.10
2019-03-26T23:56:10.469Z,1.27
2019-03-26T23:58:37.453Z,1.00
